Time;durP1;ratioP1;P1;durP2;ratioP2;P2;SDS_P1;SDS_P2;PMS_P1;PMS_P2;Temp;Humidity;BMP_temperature;BMP_pressure;BME280_temperature;BME280_humidity;BME280_pressure;Samples;Min_cycle;Max_cycle;Signal;HPM_P1;HPM_P2
2022/03/16 00:01:32;;;;;;;63.17;30.90;;;19.30;52.20;;;;;;5097887;28;20040;-72
2022/03/16 00:03:58;;;;;;;76.63;34.78;;;19.30;52.30;;;;;;5098101;28;20048;-72
2022/03/16 00:06:24;;;;;;;59.72;31.70;;;19.30;52.20;;;;;;5097959;28;20040;-72
2022/03/16 00:08:49;;;;;;;60.22;33.75;;;19.20;52.20;;;;;;5080741;28;20099;-72
2022/03/16 00:11:15;;;;;;;61.20;32.47;;;19.20;52.10;;;;;;5098083;28;20071;-72
2022/03/16 00:13:42;;;;;;;59.83;33.90;;;19.40;52.00;;;;;;5097766;28;20068;-72
2022/03/16 00:16:08;;;;;;;62.45;35.00;;;19.40;51.90;;;;;;5097744;28;20063;-72
2022/03/16 00:18:34;;;;;;;66.60;36.97;;;19.20;51.70;;;;;;5097299;28;20044;-72
2022/03/16 00:21:00;;;;;;;65.20;36.80;;;19.40;51.70;;;;;;5097672;28;20051;-72
2022/03/16 00:23:27;;;;;;;65.32;33.90;;;19.20;51.50;;;;;;5097759;28;20044;-73
2022/03/16 00:25:53;;;;;;;58.13;33.60;;;19.30;51.70;;;;;;5097583;28;20036;-73
2022/03/16 00:28:19;;;;;;;71.43;35.65;;;19.20;51.70;;;;;;5097586;28;20066;-72
2022/03/16 00:30:46;;;;;;;71.55;36.10;;;19.10;52.10;;;;;;5097523;28;20147;-72
2022/03/16 00:33:12;;;;;;;71.00;37.33;;;19.30;52.00;;;;;;5079941;28;20052;-72
2022/03/16 00:35:38;;;;;;;59.22;33.97;;;19.20;52.00;;;;;;5097357;28;20104;-72
2022/03/16 00:38:05;;;;;;;69.28;34.13;;;19.20;52.00;;;;;;5097369;28;20028;-72
2022/03/16 00:40:34;;;;;;;65.63;33.83;;;19.20;52.00;;;;;;5079743;28;20100;-73
2022/03/16 00:43:02;;;;;;;58.75;32.97;;;19.20;51.90;;;;;;5097364;28;20059;-73
2022/03/16 00:45:28;;;;;;;67.00;33.28;;;19.30;51.80;;;;;;5097430;28;20041;-73
2022/03/16 00:47:54;;;;;;;57.50;32.75;;;19.20;51.50;;;;;;5063149;28;20046;-72
2022/03/16 00:50:21;;;;;;;58.17;32.88;;;19.30;51.60;;;;;;5097010;28;20040;-72
2022/03/16 00:52:47;;;;;;;59.65;34.00;;;19.30;51.40;;;;;;5096708;28;20052;-72
2022/03/16 00:55:13;;;;;;;66.88;35.22;;;19.30;51.30;;;;;;5096963;28;20040;-72
2022/03/16 00:57:40;;;;;;;69.55;36.47;;;19.30;51.20;;;;;;5094352;28;20056;-72
2022/03/16 01:00:10;;;;;;;71.68;40.15;;;19.30;51.10;;;;;;5087378;28;20048;-72
2022/03/16 01:02:36;;;;;;;88.72;43.30;;;19.30;51.00;;;;;;5096633;28;20090;-72
2022/03/16 01:05:04;;;;;;;80.95;40.10;;;19.30;50.90;;;;;;5096231;28;20146;-72
2022/03/16 01:07:30;;;;;;;70.65;38.97;;;19.30;50.80;;;;;;5096715;28;20040;-73
2022/03/16 01:09:57;;;;;;;70.95;35.92;;;19.30;50.80;;;;;;5079130;28;20060;-72
2022/03/16 01:12:23;;;;;;;64.15;34.50;;;19.20;50.70;;;;;;5096920;28;20100;-72
2022/03/16 01:14:49;;;;;;;55.08;31.27;;;19.20;50.90;;;;;;5096660;28;20040;-72
2022/03/16 01:17:15;;;;;;;65.72;35.38;;;19.20;50.80;;;;;;5096729;28;20063;-72
2022/03/16 01:19:41;;;;;;;63.88;33.10;;;19.20;50.90;;;;;;5079488;28;20066;-73
2022/03/16 01:22:08;;;;;;;62.08;34.40;;;19.20;50.90;;;;;;5079495;28;20078;-72
2022/03/16 01:24:36;;;;;;;74.07;35.88;;;19.00;50.90;;;;;;5095881;28;20122;-73
2022/03/16 01:27:02;;;;;;;71.03;37.47;;;19.10;51.00;;;;;;5096847;28;20040;-72
2022/03/16 01:29:30;;;;;;;72.63;36.45;;;19.10;51.00;;;;;;5096674;28;20041;-72
2022/03/16 01:31:57;;;;;;;69.65;37.15;;;19.10;51.10;;;;;;5078852;28;20037;-72
2022/03/16 01:34:24;;;;;;;68.20;34.90;;;19.10;51.00;;;;;;5096506;28;20040;-72
2022/03/16 01:36:50;;;;;;;71.85;36.88;;;19.10;50.90;;;;;;5096487;28;20104;-73
2022/03/16 01:39:19;;;;;;;66.57;35.30;;;19.00;50.60;;;;;;5096586;28;20036;-72
2022/03/16 01:41:50;;;;;;;65.38;34.80;;;19.10;50.60;;;;;;5095871;28;20036;-73
2022/03/16 01:44:17;;;;;;;64.18;35.13;;;19.10;50.50;;;;;;5096318;28;20032;-72
2022/03/16 01:46:43;;;;;;;65.47;36.25;;;19.10;50.50;;;;;;5096565;28;20094;-72
2022/03/16 01:49:09;;;;;;;70.35;35.83;;;19.00;50.50;;;;;;5095571;28;20036;-72
2022/03/16 01:51:36;;;;;;;73.20;35.88;;;19.00;50.60;;;;;;5095921;28;20041;-72
2022/03/16 01:54:03;;;;;;;65.32;34.15;;;19.00;50.70;;;;;;5079023;28;20040;-72
2022/03/16 01:56:29;;;;;;;64.63;37.50;;;19.00;50.80;;;;;;5096239;28;20044;-73
2022/03/16 01:58:56;;;;;;;56.28;32.67;;;18.90;50.80;;;;;;5062092;28;20033;-72
2022/03/16 02:01:23;;;;;;;53.95;31.20;;;18.90;50.70;;;;;;5079084;28;20068;-72
2022/03/16 02:03:49;;;;;;;60.20;32.33;;;18.90;50.60;;;;;;5080290;28;20077;-72
2022/03/16 02:06:15;;;;;;;70.18;36.45;;;18.80;50.30;;;;;;5099722;28;20052;-72
2022/03/16 02:08:41;;;;;;;68.85;37.20;;;19.00;50.30;;;;;;5100131;28;20117;-73
2022/03/16 02:11:08;;;;;;;69.95;38.67;;;19.00;50.10;;;;;;5100257;28;20048;-73
2022/03/16 02:13:36;;;;;;;72.75;36.60;;;19.00;50.00;;;;;;5100185;28;20044;-73
2022/03/16 02:16:03;;;;;;;80.10;39.83;;;19.00;50.00;;;;;;5100289;28;20044;-72
2022/03/16 02:18:29;;;;;;;72.68;38.42;;;19.00;49.80;;;;;;5100067;28;20094;-72
2022/03/16 02:20:59;;;;;;;76.40;41.17;;;19.00;49.70;;;;;;5100032;28;20040;-72
2022/03/16 02:23:25;;;;;;;79.90;40.92;;;19.10;49.70;;;;;;5100243;28;20040;-73
2022/03/16 02:25:54;;;;;;;82.55;42.88;;;19.00;49.60;;;;;;5082422;28;20066;-73
2022/03/16 02:28:22;;;;;;;75.38;40.53;;;19.10;49.50;;;;;;5100103;28;20036;-72
2022/03/16 02:30:49;;;;;;;78.78;39.15;;;19.10;49.60;;;;;;5099964;28;20108;-72
2022/03/16 02:33:15;;;;;;;69.80;38.53;;;19.00;49.60;;;;;;5099890;28;20040;-73
2022/03/16 02:35:42;;;;;;;69.82;37.35;;;19.00;49.50;;;;;;5082209;28;20033;-72
2022/03/16 02:38:08;;;;;;;64.07;36.58;;;19.00;49.70;;;;;;5099885;28;20128;-72
2022/03/16 02:40:35;;;;;;;71.60;38.70;;;19.00;49.80;;;;;;5099702;28;20063;-72
2022/03/16 02:43:02;;;;;;;71.53;36.35;;;19.00;49.80;;;;;;5099630;28;20063;-72
2022/03/16 02:45:28;;;;;;;70.90;38.28;;;19.00;49.90;;;;;;5099584;28;20037;-72
2022/03/16 02:47:54;;;;;;;62.40;37.30;;;19.00;50.00;;;;;;5099584;28;20044;-72
2022/03/16 02:50:20;;;;;;;73.53;38.08;;;18.90;50.10;;;;;;5099625;28;20071;-72
2022/03/16 02:52:47;;;;;;;69.72;38.13;;;18.90;50.20;;;;;;5099512;28;20048;-72
2022/03/16 02:55:13;;;;;;;75.85;39.45;;;18.90;50.00;;;;;;5099293;28;20040;-72
2022/03/16 02:57:40;;;;;;;71.53;40.13;;;18.80;50.00;;;;;;5099520;28;20103;-72
2022/03/16 03:00:08;;;;;;;68.72;38.08;;;18.90;50.00;;;;;;5099408;28;20044;-73
2022/03/16 03:02:37;;;;;;;76.47;40.35;;;18.80;49.70;;;;;;5099088;28;20073;-72
2022/03/16 03:05:04;;;;;;;82.75;41.33;;;18.90;49.70;;;;;;5099113;28;20037;-72
2022/03/16 03:07:29;;;;;;;75.43;40.67;;;18.90;49.60;;;;;;5099325;28;20062;-72
2022/03/16 03:09:56;;;;;;;84.07;41.58;;;18.80;49.50;;;;;;5099171;28;20036;-72
2022/03/16 03:12:22;;;;;;;78.80;40.17;;;18.80;49.50;;;;;;5099236;28;20097;-72
2022/03/16 03:14:48;;;;;;;70.25;38.00;;;18.80;49.50;;;;;;5098617;28;20045;-73
2022/03/16 03:17:14;;;;;;;67.65;39.45;;;18.80;49.70;;;;;;5099065;28;20055;-72
2022/03/16 03:19:43;;;;;;;75.35;37.25;;;18.80;49.80;;;;;;5099001;28;20036;-74
2022/03/16 03:22:09;;;;;;;82.75;41.83;;;18.80;49.80;;;;;;5098972;28;20044;-72
2022/03/16 03:24:36;;;;;;;76.57;41.75;;;18.70;49.80;;;;;;5098712;28;20036;-73
2022/03/16 03:27:02;;;;;;;77.38;41.08;;;18.70;49.70;;;;;;5098726;28;20044;-72
2022/03/16 03:29:28;;;;;;;70.07;38.65;;;18.90;49.70;;;;;;5098699;28;20047;-72
2022/03/16 03:31:54;;;;;;;78.32;41.38;;;18.80;49.40;;;;;;5098733;28;20036;-72
2022/03/16 03:34:20;;;;;;;72.85;36.83;;;18.80;49.30;;;;;;5098533;28;20053;-72
2022/03/16 03:36:46;;;;;;;68.30;36.97;;;18.80;49.20;;;;;;5098596;28;20065;-72
2022/03/16 03:39:12;;;;;;;62.05;34.90;;;18.80;49.20;;;;;;5098586;28;20032;-72
2022/03/16 03:41:39;;;;;;;60.25;33.30;;;18.80;49.20;;;;;;5098649;28;20071;-72
2022/03/16 03:44:05;;;;;;;60.85;33.15;;;18.80;49.10;;;;;;5098573;28;20055;-72
2022/03/16 03:46:31;;;;;;;66.43;34.10;;;18.80;49.10;;;;;;5098433;28;20074;-72
2022/03/16 03:48:57;;;;;;;68.30;35.95;;;18.80;49.00;;;;;;5098496;28;20048;-73
2022/03/16 03:51:24;;;;;;;71.18;38.45;;;18.90;49.00;;;;;;5098326;28;20048;-72
2022/03/16 03:53:50;;;;;;;76.13;36.33;;;18.90;48.90;;;;;;5098485;28;20074;-72
2022/03/16 03:56:16;;;;;;;75.43;39.10;;;18.80;48.90;;;;;;5098199;28;20067;-72
2022/03/16 03:58:43;;;;;;;64.68;37.15;;;18.70;48.90;;;;;;5098166;28;20028;-72
2022/03/16 04:01:09;;;;;;;69.55;36.13;;;18.80;49.00;;;;;;5098176;28;20044;-72
2022/03/16 04:03:35;;;;;;;64.68;36.63;;;18.70;49.20;;;;;;5098133;28;20057;-72
2022/03/16 04:06:01;;;;;;;67.70;36.90;;;18.70;49.30;;;;;;5097934;28;20045;-72
2022/03/16 04:08:27;;;;;;;68.03;34.90;;;18.60;49.30;;;;;;5098238;28;20045;-73
2022/03/16 04:10:53;;;;;;;64.15;35.80;;;18.60;49.40;;;;;;5097851;28;20067;-73
2022/03/16 04:13:19;;;;;;;65.53;37.65;;;18.60;49.40;;;;;;5097632;28;20044;-72
2022/03/16 04:15:45;;;;;;;68.32;38.13;;;18.60;49.50;;;;;;5097839;28;20048;-72
2022/03/16 04:18:11;;;;;;;75.65;38.10;;;18.60;49.40;;;;;;5080433;28;20063;-72
2022/03/16 04:20:38;;;;;;;75.63;39.17;;;18.70;49.40;;;;;;5097853;28;20041;-73
2022/03/16 04:23:04;;;;;;;68.38;39.03;;;18.60;49.30;;;;;;5097926;28;20425;-73
2022/03/16 04:25:30;;;;;;;65.78;38.00;;;18.60;49.20;;;;;;5097242;28;20055;-72
2022/03/16 04:27:56;;;;;;;69.13;39.38;;;18.60;49.10;;;;;;5097577;28;20056;-72
2022/03/16 04:30:23;;;;;;;69.22;34.72;;;18.60;48.90;;;;;;5097753;28;20047;-72
2022/03/16 04:32:51;;;;;;;70.68;34.05;;;18.60;49.10;;;;;;5097555;28;20090;-72
2022/03/16 04:35:19;;;;;;;60.60;31.88;;;18.70;48.80;;;;;;5097436;28;20064;-73
2022/03/16 04:37:45;;;;;;;47.88;27.65;;;18.90;48.60;;;;;;5097384;28;20040;-72
2022/03/16 04:40:12;;;;;;;54.13;29.45;;;19.10;48.60;;;;;;5097110;28;20036;-73
2022/03/16 04:42:38;;;;;;;66.15;34.53;;;19.30;48.40;;;;;;5097467;28;20059;-73
2022/03/16 04:45:05;;;;;;;64.22;35.25;;;19.50;48.20;;;;;;5097235;28;20048;-72
2022/03/16 04:47:31;;;;;;;63.78;34.78;;;19.50;48.40;;;;;;5097288;28;20127;-72
2022/03/16 04:49:57;;;;;;;53.63;31.35;;;19.30;48.60;;;;;;5097191;28;20045;-73
2022/03/16 04:52:25;;;;;;;60.40;28.85;;;19.20;49.40;;;;;;5097075;28;20044;-71
2022/03/16 04:54:51;;;;;;;50.97;26.73;;;19.40;52.00;;;;;;5095866;28;20487;-72
2022/03/16 04:57:17;;;;;;;57.60;31.77;;;19.90;52.40;;;;;;5096741;28;20041;-71
2022/03/16 04:59:43;;;;;;;58.30;32.92;;;20.20;53.40;;;;;;5096971;28;20032;-74
2022/03/16 05:02:09;;;;;;;56.60;33.55;;;20.50;55.40;;;;;;5096146;28;20056;-72
2022/03/16 05:04:35;;;;;;;56.97;30.55;;;20.50;47.90;;;;;;5096537;28;20036;-73
2022/03/16 05:07:02;;;;;;;68.65;38.50;;;20.50;44.70;;;;;;5095522;28;20075;-74
2022/03/16 05:09:28;;;;;;;71.10;38.30;;;20.40;42.70;;;;;;5096106;28;20079;-73
2022/03/16 05:11:54;;;;;;;70.15;37.65;;;20.30;42.80;;;;;;5078835;28;20033;-72
2022/03/16 05:14:21;;;;;;;74.75;37.10;;;19.90;43.00;;;;;;5096149;28;20040;-74
2022/03/16 05:16:47;;;;;;;77.45;38.70;;;19.90;43.80;;;;;;5096080;28;20063;-73
2022/03/16 05:19:13;;;;;;;64.40;37.83;;;19.70;44.40;;;;;;5096136;28;20032;-73
2022/03/16 05:21:39;;;;;;;70.82;39.65;;;19.70;45.10;;;;;;5095286;28;20040;-75
2022/03/16 05:24:05;;;;;;;69.53;36.38;;;19.50;45.50;;;;;;5096207;28;20036;-73
2022/03/16 05:26:32;;;;;;;72.88;37.38;;;19.60;45.80;;;;;;5095951;28;20040;-74
2022/03/16 05:28:58;;;;;;;77.00;38.85;;;19.50;46.10;;;;;;5096097;28;20424;-74
2022/03/16 05:31:25;;;;;;;67.03;37.33;;;19.50;46.40;;;;;;5095940;28;20044;-73
2022/03/16 05:33:51;;;;;;;64.25;34.83;;;19.50;46.70;;;;;;5096146;28;20044;-73
2022/03/16 05:36:17;;;;;;;61.47;32.80;;;19.60;47.50;;;;;;5095671;28;20032;-73
2022/03/16 05:38:43;;;;;;;85.03;37.28;;;19.60;47.50;;;;;;5078437;28;20044;-74
2022/03/16 05:41:11;;;;;;;76.93;40.15;;;19.80;47.40;;;;;;5095711;28;20059;-74
2022/03/16 05:43:38;;;;;;;67.85;39.67;;;19.80;47.30;;;;;;5095876;28;20036;-74
2022/03/16 05:46:04;;;;;;;69.43;38.42;;;19.70;47.70;;;;;;5095699;28;20032;-71
2022/03/16 05:48:30;;;;;;;76.40;38.60;;;19.60;49.00;;;;;;5095826;28;20052;-71
2022/03/16 05:50:56;;;;;;;71.30;38.53;;;19.40;49.30;;;;;;5095096;28;20036;-72
2022/03/16 05:53:22;;;;;;;62.92;35.33;;;19.20;49.90;;;;;;5095684;28;20045;-70
2022/03/16 05:55:48;;;;;;;59.75;35.38;;;19.30;50.50;;;;;;5095682;28;20059;-70
2022/03/16 05:58:14;;;;;;;49.03;28.50;;;19.10;44.10;;;;;;5095742;28;20036;-69
2022/03/16 06:00:42;;;;;;;41.08;24.95;;;19.20;41.30;;;;;;5094132;28;20096;-74
2022/03/16 06:03:10;;;;;;;46.50;27.42;;;19.30;40.30;;;;;;5075625;28;20065;-71
2022/03/16 06:05:37;;;;;;;43.78;26.73;;;19.40;41.50;;;;;;5075241;28;20060;-72
2022/03/16 06:08:03;;;;;;;46.63;25.83;;;19.60;40.40;;;;;;5074793;28;20048;-73
2022/03/16 06:10:33;;;;;;;41.70;27.45;;;19.60;39.40;;;;;;5080034;28;20036;-73
2022/03/16 06:13:01;;;;;;;39.00;25.38;;;19.80;39.40;;;;;;5095225;28;20048;-73
2022/03/16 06:15:29;;;;;;;37.55;20.48;;;19.80;39.30;;;;;;5095106;28;20040;-72
2022/03/16 06:17:59;;;;;;;39.70;23.55;;;19.90;38.90;;;;;;5094214;28;20067;-72
2022/03/16 06:20:30;;;;;;;39.55;20.23;;;19.90;36.70;;;;;;5094613;28;20032;-68
2022/03/16 06:22:56;;;;;;;39.33;22.58;;;19.90;36.70;;;;;;5095336;28;20037;-68
2022/03/16 06:25:25;;;;;;;32.92;20.20;;;20.00;37.90;;;;;;5094678;28;20199;-68
2022/03/16 06:27:52;;;;;;;50.17;24.67;;;20.00;37.70;;;;;;5094461;28;20056;-68
2022/03/16 06:30:19;;;;;;;37.03;23.70;;;20.00;38.30;;;;;;5083386;28;20037;-69
2022/03/16 06:32:47;;;;;;;54.08;26.00;;;20.10;37.40;;;;;;5094871;28;20068;-70
2022/03/16 06:35:15;;;;;;;45.00;26.58;;;20.00;37.80;;;;;;5095069;28;20044;-68
2022/03/16 06:37:42;;;;;;;37.22;22.95;;;20.00;41.40;;;;;;5091875;28;20100;-69
2022/03/16 06:40:09;;;;;;;35.78;22.73;;;20.10;41.60;;;;;;5094219;28;20037;-70
2022/03/16 06:42:47;;;;;;;35.47;19.92;;;20.30;40.40;;;;;;5094620;28;20052;-70
2022/03/16 06:45:13;;;;;;;37.05;20.88;;;20.40;40.50;;;;;;5089945;28;20059;-73
2022/03/16 06:47:39;;;;;;;52.67;29.55;;;20.50;38.80;;;;;;5094159;28;20037;-71
2022/03/16 06:50:06;;;;;;;49.97;28.63;;;20.70;49.80;;;;;;5096224;28;20043;-70
2022/03/16 06:52:32;;;;;;;53.40;30.63;;;20.60;52.00;;;;;;5098093;28;20067;-71
2022/03/16 06:54:58;;;;;;;57.17;29.60;;;20.60;53.20;;;;;;5097915;28;20130;-72
2022/03/16 06:57:24;;;;;;;52.97;29.60;;;20.70;53.40;;;;;;5097905;28;20045;-71
2022/03/16 06:59:51;;;;;;;55.70;29.60;;;20.50;54.00;;;;;;5098381;28;20036;-73
2022/03/16 07:02:17;;;;;;;48.33;29.52;;;20.50;54.30;;;;;;5098401;28;20059;-71
2022/03/16 07:04:43;;;;;;;54.28;28.63;;;20.30;55.10;;;;;;5098810;28;20040;-73
2022/03/16 07:07:09;;;;;;;63.17;32.05;;;20.40;55.70;;;;;;5098532;28;20074;-74
2022/03/16 07:09:35;;;;;;;63.22;31.67;;;20.30;56.20;;;;;;5098230;28;20037;-71
2022/03/16 07:12:01;;;;;;;50.15;23.65;;;20.40;58.60;;;;;;5098128;28;20036;-72
2022/03/16 07:14:30;;;;;;;60.20;28.90;;;20.40;57.60;;;;;;5097290;28;20036;-72
2022/03/16 07:16:57;;;;;;;57.88;28.45;;;20.50;56.00;;;;;;5097844;28;20071;-71
2022/03/16 07:19:23;;;;;;;49.10;25.13;;;20.60;55.40;;;;;;5112905;28;20032;-71
2022/03/16 07:21:50;;;;;;;47.58;26.67;;;20.80;55.10;;;;;;5104322;28;20051;-72
2022/03/16 07:24:16;;;;;;;45.53;25.40;;;20.80;54.50;;;;;;5097795;28;20067;-72
2022/03/16 07:26:42;;;;;;;43.92;25.10;;;20.90;54.60;;;;;;5094059;28;20040;-71
2022/03/16 07:29:09;;;;;;;60.35;31.30;;;20.90;54.50;;;;;;5098009;28;20055;-71
2022/03/16 07:31:35;;;;;;;52.00;25.30;;;21.00;54.30;;;;;;5098096;28;20037;-70
2022/03/16 07:34:01;;;;;;;47.72;25.25;;;21.00;54.00;;;;;;5098116;28;20037;-70
2022/03/16 07:36:31;;;;;;;56.50;26.08;;;21.10;54.30;;;;;;5097716;28;20051;-71
2022/03/16 07:38:57;;;;;;;50.88;24.13;;;21.00;54.20;;;;;;5097936;28;20050;-72
2022/03/16 07:41:24;;;;;;;48.63;27.15;;;21.10;54.00;;;;;;5097736;28;20032;-71
2022/03/16 07:43:50;;;;;;;41.25;23.77;;;21.20;53.70;;;;;;5097325;28;20120;-72
2022/03/16 07:46:16;;;;;;;51.30;25.85;;;21.30;53.80;;;;;;5096177;28;20047;-71
2022/03/16 07:48:43;;;;;;;36.47;19.00;;;21.20;53.30;;;;;;5097257;28;20044;-68
2022/03/16 07:51:09;;;;;;;39.35;23.25;;;21.30;51.90;;;;;;5097642;28;20040;-70
2022/03/16 07:53:35;;;;;;;56.35;28.52;;;21.30;50.40;;;;;;5097576;28;20048;-71
2022/03/16 07:56:01;;;;;;;34.58;20.58;;;21.30;49.20;;;;;;5097583;28;20070;-71
2022/03/16 07:58:27;;;;;;;41.53;23.52;;;21.40;48.40;;;;;;5097511;28;20044;-72
2022/03/16 08:00:54;;;;;;;43.97;24.70;;;21.40;48.00;;;;;;5096395;28;20060;-71
2022/03/16 08:03:20;;;;;;;41.28;23.92;;;21.40;47.70;;;;;;5097159;28;20067;-70
2022/03/16 08:05:47;;;;;;;42.53;23.65;;;21.40;47.50;;;;;;5097428;28;20036;-71
2022/03/16 08:08:14;;;;;;;39.00;19.75;;;21.40;47.40;;;;;;5097249;28;20036;-69
2022/03/16 08:10:41;;;;;;;38.28;23.25;;;21.40;47.30;;;;;;5097098;28;20047;-70
2022/03/16 08:13:07;;;;;;;38.75;21.70;;;21.40;47.10;;;;;;5097077;28;20123;-70
2022/03/16 08:15:33;;;;;;;36.55;20.65;;;21.30;47.20;;;;;;5096569;28;20036;-70
2022/03/16 08:17:59;;;;;;;38.42;21.30;;;21.30;46.60;;;;;;5096960;28;20068;-70
2022/03/16 08:20:25;;;;;;;35.10;20.38;;;21.30;46.80;;;;;;5096644;28;20086;-69
2022/03/16 08:22:56;;;;;;;34.95;17.27;;;21.30;46.70;;;;;;5096214;28;20059;-69
2022/03/16 08:25:22;;;;;;;37.50;19.52;;;21.30;46.10;;;;;;5096812;28;20522;-69
2022/03/16 08:27:49;;;;;;;38.42;21.27;;;21.30;45.80;;;;;;5096793;28;20104;-70
2022/03/16 08:30:16;;;;;;;45.42;21.73;;;21.20;45.50;;;;;;5096917;28;20066;-69
2022/03/16 08:32:42;;;;;;;39.20;19.88;;;21.40;45.80;;;;;;5096264;28;20044;-70
2022/03/16 08:35:09;;;;;;;39.55;22.55;;;21.40;46.40;;;;;;5096941;28;20044;-73
2022/03/16 08:37:36;;;;;;;41.00;23.25;;;21.30;46.20;;;;;;5096359;28;20055;-71
2022/03/16 08:40:05;;;;;;;45.67;24.83;;;21.30;45.80;;;;;;5096677;28;20036;-72
2022/03/16 08:42:31;;;;;;;39.25;23.35;;;21.20;46.10;;;;;;5096770;28;20040;-73
2022/03/16 08:44:57;;;;;;;34.53;20.08;;;21.10;44.60;;;;;;5096279;28;20043;-73
2022/03/16 08:47:23;;;;;;;41.38;23.63;;;21.10;48.10;;;;;;5096471;28;20064;-70
2022/03/16 08:49:53;;;;;;;65.60;31.88;;;20.90;47.20;;;;;;5095667;28;20066;-73
2022/03/16 08:52:20;;;;;;;34.75;19.17;;;21.00;38.00;;;;;;5096509;28;20040;-72
2022/03/16 08:54:46;;;;;;;27.33;15.55;;;21.30;44.30;;;;;;5095475;28;20100;-72
2022/03/16 08:57:14;;;;;;;33.35;19.63;;;21.50;42.90;;;;;;5096040;28;20037;-72
2022/03/16 08:59:41;;;;;;;31.95;17.67;;;21.70;39.70;;;;;;5096390;28;20040;-71
2022/03/16 09:02:07;;;;;;;46.92;27.50;;;21.70;31.70;;;;;;5096273;28;20040;-72
2022/03/16 09:04:34;;;;;;;30.17;18.33;;;21.80;32.00;;;;;;5096488;28;20036;-72
2022/03/16 09:07:02;;;;;;;30.17;19.38;;;21.70;34.30;;;;;;5096181;28;20048;-72
2022/03/16 09:09:28;;;;;;;29.50;15.23;;;21.80;34.10;;;;;;5096172;28;20067;-71
2022/03/16 09:11:54;;;;;;;27.65;15.88;;;21.80;36.30;;;;;;5095926;28;20074;-71
2022/03/16 09:14:20;;;;;;;33.85;18.52;;;21.90;37.20;;;;;;5096171;28;20071;-71
2022/03/16 09:16:47;;;;;;;25.05;16.67;;;22.00;35.40;;;;;;5095705;28;20032;-71
2022/03/16 09:19:20;;;;;;;22.60;12.32;;;22.00;40.20;;;;;;5095923;28;20050;-71
2022/03/16 09:21:48;;;;;;;30.50;15.90;;;22.10;39.80;;;;;;5096871;28;20039;-72
2022/03/16 09:24:15;;;;;;;26.52;14.77;;;22.10;38.30;;;;;;5116467;28;20070;-70
2022/03/16 09:26:41;;;;;;;25.13;14.88;;;22.20;39.90;;;;;;5115989;28;20044;-71
2022/03/16 09:29:10;;;;;;;12.75;8.20;;;22.20;44.40;;;;;;5116167;28;20036;-72
2022/03/16 09:31:37;;;;;;;24.50;13.27;;;22.30;47.20;;;;;;5115800;28;20048;-72
2022/03/16 09:34:05;;;;;;;33.20;17.25;;;22.20;47.90;;;;;;5116049;28;20073;-72
2022/03/16 09:36:32;;;;;;;29.80;16.25;;;22.10;48.50;;;;;;5116100;28;20447;-72
2022/03/16 09:38:58;;;;;;;29.55;16.15;;;22.10;48.50;;;;;;5116149;28;20032;-70
2022/03/16 09:41:26;;;;;;;28.17;14.82;;;22.10;47.20;;;;;;5116042;28;20032;-73
2022/03/16 09:43:54;;;;;;;34.22;20.90;;;22.10;48.30;;;;;;5116125;28;20040;-72
2022/03/16 09:46:42;;;;;;;15.15;10.68;;;22.10;44.30;;;;;;5116259;28;20040;-72
2022/03/16 09:49:08;;;;;;;24.30;13.57;;;22.10;48.00;;;;;;5115728;28;20062;-72
2022/03/16 09:51:36;;;;;;;28.52;15.30;;;22.10;48.60;;;;;;5115869;28;20055;-72
2022/03/16 09:54:05;;;;;;;16.58;9.95;;;22.10;42.20;;;;;;5116209;28;20051;-71
2022/03/16 09:56:33;;;;;;;13.68;8.93;;;22.20;38.70;;;;;;5098184;28;20036;-73
2022/03/16 09:59:00;;;;;;;21.63;12.15;;;22.50;43.50;;;;;;5115873;28;20066;-73
2022/03/16 10:01:27;;;;;;;13.10;9.15;;;22.50;36.30;;;;;;5116003;28;20036;-72
2022/03/16 10:03:59;;;;;;;20.70;13.63;;;22.70;36.00;;;;;;5115790;28;20112;-72
2022/03/16 10:06:26;;;;;;;18.88;10.95;;;22.60;35.10;;;;;;5116103;28;20066;-71
2022/03/16 10:14:24;;;;;;;22.25;14.05;;;22.70;35.00;;;;;;5115911;28;20044;-73
2022/03/16 10:19:54;;;;;;;21.70;14.02;;;22.80;31.00;;;;;;5115820;28;20036;-74
2022/03/16 10:22:43;;;;;;;21.75;12.80;;;22.90;32.50;;;;;;5116228;28;20040;-71
2022/03/16 10:25:10;;;;;;;20.67;12.20;;;22.80;31.40;;;;;;5106008;28;20067;-72
2022/03/16 10:27:37;;;;;;;19.42;12.15;;;22.90;33.70;;;;;;5098721;28;20049;-73
2022/03/16 10:30:06;;;;;;;11.57;6.43;;;23.00;31.10;;;;;;5081584;28;20040;-71
2022/03/16 10:32:32;;;;;;;15.35;9.40;;;22.90;37.30;;;;;;5099106;28;20040;-75
2022/03/16 10:35:05;;;;;;;17.98;10.13;;;23.30;44.90;;;;;;5098398;28;20036;-74
2022/03/16 10:37:34;;;;;;;16.50;9.63;;;23.80;49.20;;;;;;5099041;28;20040;-74
2022/03/16 10:40:01;;;;;;;24.20;15.00;;;23.90;43.30;;;;;;5098981;28;20054;-75
2022/03/16 10:48:19;;;;;;;18.73;10.10;;;23.80;49.80;;;;;;5098971;28;20037;-75
2022/03/16 10:50:48;;;;;;;13.30;8.35;;;23.60;48.00;;;;;;5081242;28;20040;-73
2022/03/16 10:53:16;;;;;;;16.58;10.10;;;23.70;48.30;;;;;;5098988;28;20055;-72
2022/03/16 10:55:45;;;;;;;22.75;13.52;;;23.60;47.30;;;;;;5098984;28;20028;-72
2022/03/16 10:58:12;;;;;;;28.33;14.30;;;23.50;45.00;;;;;;5098450;28;20032;-72
2022/03/16 11:00:41;;;;;;;20.73;11.57;;;23.30;46.70;;;;;;5098597;28;20068;-73
2022/03/16 11:03:15;;;;;;;17.35;11.25;;;23.10;48.30;;;;;;5098656;28;20108;-73
2022/03/16 11:05:42;;;;;;;21.20;11.68;;;23.20;50.70;;;;;;5098304;28;20088;-74
2022/03/16 11:08:10;;;;;;;18.42;12.85;;;23.60;50.40;;;;;;5098591;28;20083;-72
2022/03/16 11:10:41;;;;;;;18.92;11.10;;;23.90;49.70;;;;;;5098614;28;20048;-72
2022/03/16 11:15:55;;;;;;;20.60;12.95;;;24.10;49.20;;;;;;5098425;28;20044;-73
2022/03/16 11:18:25;;;;;;;17.50;11.00;;;23.90;46.00;;;;;;5098345;28;20032;-72
2022/03/16 11:20:56;;;;;;;22.08;11.20;;;23.90;46.60;;;;;;5098315;28;20028;-73
2022/03/16 11:26:32;;;;;;;17.40;11.02;;;23.80;45.90;;;;;;5098286;28;20060;-73
2022/03/16 11:29:25;;;;;;;18.48;11.15;;;23.70;46.10;;;;;;5097928;28;20047;-73
2022/03/16 11:32:09;;;;;;;10.93;6.57;;;23.60;47.60;;;;;;5097638;28;20048;-72
2022/03/16 11:34:36;;;;;;;14.05;9.00;;;23.40;46.10;;;;;;5097756;28;20045;-71
2022/03/16 11:37:09;;;;;;;15.23;7.57;;;23.40;48.00;;;;;;5097532;28;20053;-74
2022/03/16 11:39:40;;;;;;;;;;;23.30;48.30;;;;;;5098553;28;20028;-71
2022/03/16 11:42:08;;;;;;;15.60;7.10;;;23.30;47.90;;;;;;5097760;28;19909;-72
2022/03/16 11:44:34;;;;;;;15.95;9.65;;;23.30;48.80;;;;;;5097932;28;20036;-71
2022/03/16 11:47:09;;;;;;;10.82;7.03;;;23.20;48.20;;;;;;5097840;28;20040;-71
2022/03/16 11:50:02;;;;;;;19.17;10.07;;;23.20;49.00;;;;;;5097753;28;20051;-71
2022/03/16 11:53:17;;;;;;;16.00;9.55;;;23.20;48.90;;;;;;5080524;28;20045;-71
2022/03/16 11:55:48;;;;;;;18.48;10.65;;;23.00;48.20;;;;;;5095856;28;20059;-70
2022/03/16 11:58:25;;;;;;;11.80;8.20;;;23.10;48.60;;;;;;5097718;28;20066;-71
2022/03/16 12:01:27;;;;;;;19.95;10.52;;;22.90;49.60;;;;;;5097649;28;20063;-70
2022/03/16 12:04:15;;;;;;;18.98;10.65;;;23.00;48.50;;;;;;5097374;28;20051;-70
2022/03/16 12:06:52;;;;;;;18.95;10.88;;;22.80;50.00;;;;;;5097295;28;20082;-71
2022/03/16 12:09:29;;;;;;;12.13;5.68;;;22.70;50.10;;;;;;5097421;28;20045;-70
2022/03/16 12:15:10;;;;;;;16.77;9.98;;;22.70;53.60;;;;;;5096986;28;20068;-71
2022/03/16 12:17:43;;;;;;;21.83;12.25;;;22.70;52.70;;;;;;5096791;28;20032;-70
2022/03/16 12:20:15;;;;;;;15.25;9.18;;;22.60;52.40;;;;;;5097161;28;20040;-70
2022/03/16 12:22:47;;;;;;;17.65;10.68;;;22.70;52.90;;;;;;5096669;28;20037;-70
2022/03/16 12:25:26;;;;;;;14.82;8.90;;;22.60;53.40;;;;;;5097025;28;20079;-70
2022/03/16 12:30:52;;;;;;;22.80;11.05;;;22.50;52.20;;;;;;5079106;28;20052;-70
2022/03/16 12:33:24;;;;;;;23.37;13.23;;;22.60;52.50;;;;;;5096839;28;20107;-71
2022/03/16 12:35:52;;;;;;;18.02;10.98;;;22.50;51.40;;;;;;5096388;28;20056;-70
2022/03/16 12:38:20;;;;;;;19.85;12.77;;;22.50;53.40;;;;;;5093794;28;20049;-71
2022/03/16 12:43:33;;;;;;;17.15;11.45;;;22.50;53.10;;;;;;5096282;28;20032;-71
2022/03/16 12:46:22;;;;;;;19.55;12.10;;;22.40;53.00;;;;;;5095529;28;20039;-71
2022/03/16 12:48:51;;;;;;;21.83;12.25;;;22.50;52.30;;;;;;5095424;28;20029;-71
2022/03/16 12:51:35;;;;;;;19.35;11.65;;;22.50;53.40;;;;;;5095299;28;20044;-71
2022/03/16 12:54:01;;;;;;;18.35;12.20;;;22.40;53.40;;;;;;5096288;28;20047;-71
2022/03/16 12:56:27;;;;;;;22.48;12.25;;;22.40;53.50;;;;;;5094973;28;20483;-71
2022/03/16 12:58:55;;;;;;;21.83;11.48;;;22.40;53.50;;;;;;5094945;28;20033;-71
2022/03/16 13:01:23;;;;;;;19.73;12.55;;;22.30;53.70;;;;;;5095414;28;20037;-71